Time;durP1;ratioP1;P1;durP2;ratioP2;P2;SDS_P1;SDS_P2;PMS_P1;PMS_P2;Temp;Humidity;BMP_temperature;BMP_pressure;BME280_temperature;BME280_humidity;BME280_pressure;Samples;Min_cycle;Max_cycle;Signal;HPM_P1;HPM_P2
2021/08/19 00:01:46;;;;;;;5.43;3.03;;;17.10;99.90;;;17.90;100.00;98124.56;5019965;28;20970;-81
2021/08/19 00:04:15;;;;;;;4.47;2.77;;;17.30;99.90;;;17.85;100.00;98132.38;5019425;28;20549;-81
2021/08/19 00:06:45;;;;;;;4.43;2.83;;;17.20;99.90;;;17.84;100.00;98129.97;5019071;28;20501;-80
2021/08/19 00:09:14;;;;;;;3.90;2.83;;;17.20;99.90;;;17.84;100.00;98127.34;5018888;28;20616;-80
2021/08/19 00:11:42;;;;;;;4.50;2.97;;;17.10;99.90;;;17.82;100.00;98132.03;5022274;28;21021;-81
2021/08/19 00:14:10;;;;;;;7.93;3.57;;;17.10;99.90;;;17.82;100.00;98126.75;5025777;28;20474;-81
2021/08/19 00:16:39;;;;;;;10.93;2.80;;;17.10;99.90;;;17.81;100.00;98125.13;5019102;28;20521;-82
2021/08/19 00:19:07;;;;;;;2.90;2.60;;;17.00;99.90;;;17.81;100.00;98130.41;5027836;28;21032;-81
2021/08/19 00:21:36;;;;;;;5.93;2.90;;;17.10;99.90;;;17.77;100.00;98124.78;5012530;28;20976;-81
2021/08/19 00:24:06;;;;;;;3.03;2.73;;;17.00;99.90;;;17.78;100.00;98129.06;5019679;28;20459;-81
2021/08/19 00:26:35;;;;;;;6.77;3.13;;;17.10;99.90;;;17.79;100.00;98127.22;5013715;28;20493;-81
2021/08/19 00:29:03;;;;;;;5.63;3.53;;;17.10;99.90;;;17.80;100.00;98110.31;5013876;28;20525;-81
2021/08/19 00:31:32;;;;;;;7.30;2.60;;;17.00;99.90;;;17.80;100.00;98118.25;5022473;28;21257;-80
2021/08/19 00:34:00;;;;;;;5.50;2.77;;;17.00;99.90;;;17.82;100.00;98121.47;5012146;28;20529;-81
2021/08/19 00:36:29;;;;;;;8.60;3.93;;;17.00;99.90;;;17.82;100.00;98105.59;5024012;28;20552;-81
2021/08/19 00:38:57;;;;;;;5.20;3.40;;;17.00;99.90;;;17.80;100.00;98107.66;5024481;28;20470;-81
2021/08/19 00:41:27;;;;;;;4.83;3.80;;;17.00;99.90;;;17.79;100.00;98106.06;5027723;28;20501;-81
2021/08/19 00:43:56;;;;;;;5.97;3.80;;;17.00;99.90;;;17.79;100.00;98106.06;5021107;28;21014;-80
2021/08/19 00:46:27;;;;;;;3.53;3.00;;;17.00;99.90;;;17.79;100.00;98106.84;5019339;28;20551;-81
2021/08/19 00:48:59;;;;;;;3.80;2.77;;;16.90;99.90;;;17.78;100.00;98101.78;5021415;28;20463;-81
2021/08/19 00:51:37;;;;;;;4.17;3.10;;;16.80;99.90;;;17.78;100.00;98105.25;5020147;28;20549;-81
2021/08/19 00:54:08;;;;;;;6.93;4.87;;;16.80;99.90;;;17.79;100.00;98095.47;5023314;28;20469;-81
2021/08/19 00:56:40;;;;;;;5.40;4.20;;;16.90;99.90;;;17.81;100.00;98103.97;5019807;28;20466;-81
2021/08/19 00:59:11;;;;;;;9.20;4.17;;;16.90;99.90;;;17.81;100.00;98093.38;5018974;28;20506;-81
2021/08/19 01:01:40;;;;;;;4.63;3.30;;;16.90;99.90;;;17.79;100.00;98095.47;5015310;28;20498;-82
2021/08/19 01:04:10;;;;;;;4.60;3.50;;;16.80;99.90;;;17.80;100.00;98097.09;5024964;28;20462;-81
2021/08/19 01:06:39;;;;;;;6.77;3.20;;;16.80;99.90;;;17.78;100.00;98099.13;5009744;28;20530;-80
2021/08/19 01:09:09;;;;;;;9.17;5.03;;;16.80;99.90;;;17.75;100.00;98092.47;5020276;28;21339;-81
2021/08/19 01:11:42;;;;;;;6.73;3.50;;;16.80;99.90;;;17.75;100.00;98092.47;5023954;28;20970;-81
2021/08/19 01:14:13;;;;;;;5.23;4.20;;;16.80;99.90;;;17.74;100.00;98090.84;5024741;28;20885;-81
2021/08/19 01:16:41;;;;;;;12.00;5.13;;;16.70;99.90;;;17.71;100.00;98093.16;5016249;28;20505;-81
2021/08/19 01:19:14;;;;;;;5.63;4.10;;;16.80;99.90;;;17.72;100.00;98089.50;5027821;28;20994;-81
2021/08/19 01:21:43;;;;;;;6.60;4.40;;;16.80;99.90;;;17.71;100.00;98087.88;5015684;28;20536;-81
2021/08/19 01:24:12;;;;;;;8.90;4.50;;;16.90;99.90;;;17.72;100.00;98090.31;5018020;28;20471;-81
2021/08/19 01:26:43;;;;;;;7.07;4.43;;;16.90;99.90;;;17.72;100.00;98084.19;5015763;28;20526;-81
2021/08/19 01:29:13;;;;;;;5.73;4.30;;;16.90;99.90;;;17.73;100.00;98091.09;5016811;28;20528;-81
2021/08/19 01:31:41;;;;;;;9.93;4.30;;;16.90;99.90;;;17.73;100.00;98091.09;5025734;28;20638;-81
2021/08/19 01:34:10;;;;;;;10.37;5.10;;;16.80;99.90;;;17.74;100.00;98088.22;5024768;28;20522;-81
2021/08/19 01:36:39;;;;;;;5.67;4.13;;;16.80;99.90;;;17.69;100.00;98082.03;5019751;28;20524;-81
2021/08/19 01:39:07;;;;;;;6.03;4.03;;;16.60;99.90;;;17.67;100.00;98089.41;5018426;28;20569;-81
2021/08/19 01:41:35;;;;;;;5.00;4.17;;;16.70;99.90;;;17.66;100.00;98085.13;5023169;28;20837;-81
2021/08/19 01:44:05;;;;;;;5.57;4.40;;;16.70;99.90;;;17.67;100.00;98081.47;5020804;28;20470;-80
2021/08/19 01:46:34;;;;;;;4.77;4.30;;;16.70;99.90;;;17.65;100.00;98078.22;5018488;28;20533;-81
2021/08/19 01:49:03;;;;;;;7.10;4.23;;;16.80;99.90;;;17.65;100.00;98080.88;5024759;28;20971;-81
2021/08/19 01:51:33;;;;;;;7.53;4.53;;;16.70;99.90;;;17.65;100.00;98081.69;5022233;28;20462;-80
2021/08/19 01:54:03;;;;;;;5.53;3.40;;;16.70;99.90;;;17.64;100.00;98081.91;5014516;28;20577;-81
2021/08/19 01:56:31;;;;;;;5.10;3.90;;;16.70;99.90;;;17.65;100.00;98079.03;5022418;28;20496;-81
2021/08/19 01:58:59;;;;;;;5.60;3.57;;;16.70;99.90;;;17.63;100.00;98077.66;5019715;28;20505;-81
2021/08/19 02:01:28;;;;;;;3.97;3.57;;;16.60;99.90;;;17.59;100.00;98078.13;5024045;28;20502;-80
2021/08/19 02:03:58;;;;;;;5.40;4.57;;;16.60;99.90;;;17.56;100.00;98075.91;5021152;28;20977;-80
2021/08/19 02:06:26;;;;;;;5.43;4.20;;;16.60;99.90;;;17.56;100.00;98081.22;5020555;28;20531;-80
2021/08/19 02:08:55;;;;;;;6.63;3.60;;;16.60;99.90;;;17.56;100.00;98072.50;5025195;28;20587;-81
2021/08/19 02:11:24;;;;;;;4.23;3.13;;;16.70;99.90;;;17.53;100.00;98081.63;5021483;28;20522;-81
2021/08/19 02:13:52;;;;;;;5.50;3.80;;;16.70;99.90;;;17.54;100.00;98080.63;5018412;28;20507;-81
2021/08/19 02:16:23;;;;;;;5.40;4.03;;;16.80;99.90;;;17.53;100.00;98076.34;5020163;28;20557;-81
2021/08/19 02:18:52;;;;;;;4.10;3.53;;;16.70;99.90;;;17.54;100.00;98077.97;5020956;28;20469;-81
2021/08/19 02:21:22;;;;;;;6.23;3.60;;;16.70;99.90;;;17.51;100.00;98075.78;5023583;28;20563;-80
2021/08/19 02:23:50;;;;;;;3.90;3.10;;;16.60;99.90;;;17.51;100.00;98072.34;5019544;28;20490;-80
2021/08/19 02:26:18;;;;;;;4.77;3.60;;;16.60;99.90;;;17.53;100.00;98071.06;5017033;28;20533;-80
2021/08/19 02:28:47;;;;;;;10.13;2.90;;;16.60;99.90;;;17.50;100.00;98076.81;5022685;28;20589;-81
2021/08/19 02:31:16;;;;;;;4.40;3.37;;;16.60;99.90;;;17.48;100.00;98076.25;5018737;28;20501;-81
2021/08/19 02:33:44;;;;;;;3.90;2.90;;;16.40;99.90;;;17.49;100.00;98080.47;5019260;28;20489;-81
2021/08/19 02:36:13;;;;;;;4.27;2.90;;;16.60;99.90;;;17.48;100.00;98068.31;5024747;28;20657;-81
2021/08/19 02:38:43;;;;;;;3.20;2.40;;;16.60;99.90;;;17.46;100.00;98070.38;5013777;28;20500;-80
2021/08/19 02:41:11;;;;;;;4.27;2.93;;;16.50;99.90;;;17.44;100.00;98067.16;5027653;28;20501;-81
2021/08/19 02:43:42;;;;;;;3.17;2.63;;;16.50;99.90;;;17.43;100.00;98070.84;5021268;28;20491;-81
2021/08/19 02:46:12;;;;;;;4.03;2.87;;;16.60;99.90;;;17.45;100.00;98067.97;5019178;28;20521;-81
2021/08/19 02:49:36;;;;;;;2.70;2.50;;;16.60;99.90;;;17.46;100.00;98065.09;5020190;28;21230;-80
2021/08/19 02:56:08;;;;;;;6.03;2.83;;;16.60;99.90;;;17.45;100.00;98052.91;5025931;28;20460;-81
2021/08/19 02:58:36;;;;;;;3.40;2.60;;;16.50;99.90;;;17.45;100.00;98050.28;5019437;28;20471;-81
2021/08/19 03:01:05;;;;;;;3.20;2.43;;;16.60;99.90;;;17.44;100.00;98055.78;5017971;28;20906;-81
2021/08/19 03:03:33;;;;;;;3.73;2.70;;;16.50;99.90;;;17.44;100.00;98043.38;5021792;28;20560;-81
2021/08/19 03:06:02;;;;;;;3.20;2.47;;;16.50;99.90;;;17.46;100.00;98046.56;5018856;28;20839;-81
2021/08/19 03:08:30;;;;;;;3.33;2.43;;;16.50;99.90;;;17.45;100.00;98049.47;5016222;28;20522;-81
2021/08/19 03:10:59;;;;;;;2.57;2.20;;;16.50;99.90;;;17.42;100.00;98048.06;5016624;28;20474;-81
2021/08/19 03:13:28;;;;;;;3.43;2.37;;;16.60;99.90;;;17.43;100.00;98048.88;5020744;28;20485;-81
2021/08/19 03:15:57;;;;;;;3.00;2.40;;;16.60;99.90;;;17.40;100.00;98044.88;5017421;28;20503;-81
2021/08/19 03:18:25;;;;;;;2.70;2.13;;;16.60;99.90;;;17.38;100.00;98044.31;5029557;28;20625;-81
2021/08/19 03:20:54;;;;;;;4.13;2.40;;;16.60;99.90;;;17.39;100.00;98048.53;5021311;28;20976;-81
2021/08/19 03:23:23;;;;;;;3.13;2.37;;;16.50;99.90;;;17.39;100.00;98040.59;5020700;28;20473;-81
2021/08/19 03:25:53;;;;;;;2.80;2.50;;;16.50;99.90;;;17.39;100.00;98043.25;5020422;28;20920;-81
2021/08/19 03:28:22;;;;;;;7.73;2.10;;;16.50;99.90;;;17.39;100.00;98039.81;5021702;28;20509;-81
2021/08/19 03:30:54;;;;;;;4.30;2.70;;;16.40;99.90;;;17.37;100.00;98037.41;5022420;28;20474;-81
2021/08/19 03:33:23;;;;;;;4.77;2.37;;;16.50;99.90;;;17.37;100.00;98034.75;5014637;28;20467;-81
2021/08/19 03:35:51;;;;;;;2.50;2.23;;;16.40;99.90;;;17.38;100.00;98035.56;5020587;28;21042;-81
2021/08/19 03:38:30;;;;;;;4.23;2.70;;;16.40;99.90;;;17.39;100.00;98037.97;5021265;28;20478;-81
2021/08/19 03:40:59;;;;;;;3.23;2.50;;;16.40;99.90;;;17.38;100.00;98036.38;5015283;28;21045;-85
2021/08/19 03:43:27;;;;;;;6.20;2.70;;;16.40;99.90;;;17.39;100.00;98037.97;5021003;28;20520;-81
2021/08/19 03:45:57;;;;;;;3.10;2.40;;;16.40;99.90;;;17.41;100.00;98040.38;5022099;28;20474;-81
2021/08/19 03:48:26;;;;;;;3.53;2.80;;;16.40;99.90;;;17.41;100.00;98041.19;5022919;28;20901;-81
2021/08/19 03:50:54;;;;;;;4.60;2.27;;;16.40;99.90;;;17.40;100.00;98038.75;5013124;28;20520;-81
2021/08/19 03:53:23;;;;;;;4.87;2.80;;;16.50;99.90;;;17.41;100.00;98037.75;5015689;28;20471;-80
2021/08/19 03:55:51;;;;;;;7.50;3.50;;;16.40;99.90;;;17.41;100.00;98038.56;5022956;28;20480;-81
2021/08/19 03:58:20;;;;;;;3.50;2.83;;;16.40;99.90;;;17.41;100.00;98035.91;5021797;28;20471;-81
2021/08/19 04:00:50;;;;;;;3.20;2.50;;;16.40;99.90;;;17.41;100.00;98037.75;5018772;28;20497;-81
2021/08/19 04:03:21;;;;;;;2.97;2.27;;;16.40;99.90;;;17.42;100.00;98049.94;5028407;28;20716;-81
2021/08/19 04:05:51;;;;;;;2.87;2.37;;;16.40;99.90;;;17.40;100.00;98042.22;5029213;28;20513;-81
2021/08/19 04:08:20;;;;;;;3.10;2.80;;;16.40;99.90;;;17.40;100.00;98050.16;5026647;28;20559;-81
2021/08/19 04:10:49;;;;;;;4.33;3.03;;;16.40;99.90;;;17.37;100.00;98053.25;5027670;28;20535;-81
2021/08/19 04:13:17;;;;;;;3.37;2.43;;;16.40;99.90;;;17.38;100.00;98051.41;5029337;28;20470;-81
2021/08/19 04:15:46;;;;;;;4.27;3.00;;;16.40;99.90;;;17.36;100.00;98056.94;5021389;28;20559;-84
2021/08/19 04:18:16;;;;;;;10.27;6.80;;;16.40;99.90;;;17.35;100.00;98057.97;5028576;28;20817;-80
2021/08/19 04:20:46;;;;;;;4.93;3.60;;;16.40;99.90;;;17.35;100.00;98057.97;5027868;28;20481;-80
2021/08/19 04:23:14;;;;;;;7.73;3.77;;;16.40;99.90;;;17.36;100.00;98053.47;5027509;28;21013;-81
2021/08/19 04:25:42;;;;;;;3.97;3.00;;;16.40;99.90;;;17.37;100.00;98055.09;5018305;28;20503;-81
2021/08/19 04:28:11;;;;;;;3.27;2.90;;;16.40;99.90;;;17.36;100.00;98051.63;5025649;28;20529;-81
2021/08/19 04:30:39;;;;;;;3.47;3.10;;;16.40;99.90;;;17.37;100.00;98063.84;5023675;28;20519;-80
2021/08/19 04:33:11;;;;;;;3.37;2.67;;;16.40;99.90;;;17.36;100.00;98062.22;5025470;28;20473;-80
2021/08/19 04:35:41;;;;;;;2.87;2.43;;;16.40;99.90;;;17.35;100.00;98055.34;5029982;28;20462;-81
2021/08/19 04:38:11;;;;;;;22.27;12.23;;;16.40;99.90;;;17.36;100.00;98053.47;5025693;28;20505;-80
2021/08/19 04:40:40;;;;;;;4.67;3.20;;;16.40;99.90;;;17.35;100.00;98049.25;5028207;28;20516;-80
2021/08/19 04:43:08;;;;;;;3.40;3.10;;;16.40;99.90;;;17.34;100.00;98053.72;5030493;28;20528;-80
2021/08/19 04:45:37;;;;;;;4.00;2.90;;;16.40;99.90;;;17.35;100.00;98049.25;5021937;28;21078;-80
2021/08/19 04:48:06;;;;;;;5.10;2.80;;;16.40;99.90;;;17.36;100.00;98053.47;5031419;28;20895;-80
2021/08/19 04:50:35;;;;;;;5.17;3.17;;;16.50;99.90;;;17.33;100.00;98049.47;5025332;28;20502;-80
2021/08/19 04:53:04;;;;;;;7.23;3.80;;;16.50;99.90;;;17.35;100.00;98057.19;5029134;28;20561;-80
2021/08/19 04:55:33;;;;;;;5.60;3.30;;;16.40;99.90;;;17.36;100.00;98056.13;5024336;28;20475;-80
2021/08/19 04:58:02;;;;;;;4.30;3.60;;;16.40;99.90;;;17.35;100.00;98052.69;5023770;28;20505;-80
2021/08/19 05:00:30;;;;;;;6.77;3.87;;;16.50;99.90;;;17.33;100.00;98053.94;5014391;28;20470;-79
2021/08/19 05:02:59;;;;;;;3.60;3.00;;;16.50;99.90;;;17.34;100.00;98056.38;5023196;28;20462;-80
2021/08/19 05:05:28;;;;;;;6.27;3.03;;;16.40;99.90;;;17.33;100.00;98057.38;5031231;28;20484;-80
2021/08/19 05:07:57;;;;;;;5.43;3.90;;;16.40;99.90;;;17.35;100.00;98055.34;5030504;28;21082;-80
2021/08/19 05:10:25;;;;;;;3.20;2.53;;;16.40;99.90;;;17.35;100.00;98057.19;5024535;28;20499;-80
2021/08/19 05:12:55;;;;;;;4.60;2.90;;;16.40;99.90;;;17.36;100.00;98049.00;5014358;28;21097;-80
2021/08/19 05:15:24;;;;;;;2.77;2.47;;;16.40;99.90;;;17.38;100.00;98056.72;5019921;28;20967;-80
2021/08/19 05:17:52;;;;;;;4.10;3.10;;;16.40;99.90;;;17.36;100.00;98061.41;5019413;28;20825;-80
2021/08/19 05:20:21;;;;;;;3.83;3.03;;;16.50;99.90;;;17.35;100.00;98060.63;5022642;28;20471;-80
2021/08/19 05:22:49;;;;;;;4.93;2.97;;;16.50;99.90;;;17.36;100.00;98059.56;5015484;28;20512;-80
2021/08/19 05:25:18;;;;;;;2.93;2.47;;;16.50;99.90;;;17.38;100.00;98062.00;5031026;28;20465;-80
2021/08/19 05:27:46;;;;;;;3.10;2.70;;;16.50;99.90;;;17.40;100.00;98059.91;5030176;28;20548;-80
2021/08/19 05:30:16;;;;;;;5.70;2.60;;;16.50;99.90;;;17.39;100.00;98064.41;5028911;28;20967;-80
2021/08/19 05:32:45;;;;;;;3.77;3.37;;;16.50;99.90;;;17.41;100.00;98069.47;5030206;28;20523;-80
2021/08/19 05:35:13;;;;;;;4.33;2.87;;;16.50;99.90;;;17.41;100.00;98067.63;5030803;28;20493;-80
2021/08/19 05:37:42;;;;;;;8.83;3.13;;;16.40;99.90;;;17.41;100.00;98067.63;5030200;28;20490;-80
2021/08/19 05:40:12;;;;;;;4.53;3.40;;;16.50;99.90;;;17.40;100.00;98071.31;5024918;28;20537;-79
2021/08/19 05:42:40;;;;;;;5.80;2.60;;;16.50;99.90;;;17.42;100.00;98074.50;5029357;28;20543;-80
2021/08/19 05:45:10;;;;;;;4.97;3.20;;;16.60;99.90;;;17.44;100.00;98069.81;5030123;28;20473;-80
2021/08/19 05:47:40;;;;;;;5.50;2.90;;;16.50;99.90;;;17.44;100.00;98069.81;5029881;28;20520;-80
2021/08/19 05:50:11;;;;;;;3.33;2.80;;;16.60;99.90;;;17.43;100.00;98065.53;5030550;28;20501;-80
2021/08/19 05:52:40;;;;;;;4.47;3.00;;;16.60;99.90;;;17.46;100.00;98074.84;5030205;28;20524;-80
2021/08/19 05:55:09;;;;;;;4.60;3.43;;;16.60;99.90;;;17.46;100.00;98070.38;5028638;28;21028;-80
2021/08/19 05:57:38;;;;;;;7.10;4.10;;;16.70;99.90;;;17.47;100.00;98072.00;5020311;28;20469;-80
2021/08/19 06:00:09;;;;;;;5.27;4.23;;;16.70;99.90;;;17.47;100.00;98072.00;5026982;28;20479;-79
2021/08/19 06:02:39;;;;;;;8.60;3.80;;;16.70;99.90;;;17.48;100.00;98078.09;5030572;28;20478;-80
2021/08/19 06:05:09;;;;;;;7.03;4.13;;;16.60;99.90;;;17.48;100.00;98078.09;5030127;28;20563;-80
2021/08/19 06:07:37;;;;;;;7.60;4.70;;;16.70;99.90;;;17.47;100.00;98079.94;5020423;28;20499;-80
2021/08/19 06:10:07;;;;;;;7.70;4.87;;;16.70;99.90;;;17.51;100.00;98082.91;5025167;28;20552;-80
2021/08/19 06:12:37;;;;;;;9.20;4.83;;;16.80;99.90;;;17.53;100.00;98086.13;5012281;28;20553;-80
2021/08/19 06:15:10;;;;;;;5.80;5.20;;;16.70;99.90;;;17.51;100.00;98089.00;5025225;28;20958;-80
2021/08/19 06:17:40;;;;;;;8.37;5.17;;;16.60;99.90;;;17.53;100.00;98102.78;5034228;28;20505;-80
2021/08/19 06:20:10;;;;;;;5.60;4.10;;;16.60;99.90;;;17.54;100.00;98087.75;5033871;28;20470;-80
2021/08/19 06:22:38;;;;;;;8.90;4.63;;;16.70;99.90;;;17.55;100.00;98095.47;5033447;28;20477;-80
2021/08/19 06:25:08;;;;;;;7.90;5.50;;;16.70;99.90;;;17.56;100.00;98091.00;5026216;28;20478;-80
2021/08/19 06:27:37;;;;;;;8.40;5.67;;;16.70;99.90;;;17.55;100.00;98092.81;5020583;28;20462;-80
2021/08/19 06:30:07;;;;;;;10.00;6.40;;;16.70;99.90;;;17.52;100.00;98090.63;5024782;28;21093;-80
2021/08/19 06:32:37;;;;;;;8.40;6.47;;;16.60;99.90;;;17.51;100.00;98089.00;5028205;28;20552;-79
2021/08/19 06:35:09;;;;;;;10.33;6.67;;;16.70;99.90;;;17.52;100.00;98097.75;5015697;28;20533;-80
2021/08/19 06:37:38;;;;;;;10.87;6.50;;;16.60;99.90;;;17.52;100.00;98095.91;5033098;28;20531;-80
2021/08/19 06:40:08;;;;;;;11.03;6.77;;;16.60;99.90;;;17.53;100.00;98097.50;5033754;28;20486;-80
2021/08/19 06:42:37;;;;;;;15.60;7.37;;;16.60;99.90;;;17.56;100.00;98091.78;5033222;28;20517;-80
2021/08/19 06:45:07;;;;;;;11.27;7.87;;;16.60;99.90;;;17.58;100.00;98089.72;5033438;28;20474;-80
2021/08/19 06:47:35;;;;;;;10.47;7.30;;;16.70;99.90;;;17.55;100.00;98094.66;5032636;28;20536;-80
2021/08/19 06:50:06;;;;;;;12.20;7.77;;;16.70;99.90;;;17.56;100.00;98096.28;5026479;28;20926;-80
2021/08/19 06:52:40;;;;;;;11.07;7.40;;;16.70;99.90;;;17.56;100.00;98091.78;5033933;28;20520;-80
2021/08/19 06:55:10;;;;;;;12.27;8.77;;;16.80;99.90;;;17.57;100.00;98092.59;5033262;28;20551;-80
2021/08/19 06:57:38;;;;;;;11.60;8.20;;;16.70;99.90;;;17.58;100.00;98088.94;5033271;28;20465;-80
2021/08/19 07:00:10;;;;;;;15.00;8.67;;;16.70;99.90;;;17.59;100.00;98086.06;5033076;28;20482;-80
2021/08/19 07:02:38;;;;;;;12.73;8.00;;;16.70;99.90;;;17.63;100.00;98090.88;5033468;28;20560;-80
2021/08/19 07:05:10;;;;;;;13.63;8.07;;;16.70;99.90;;;17.62;100.00;98090.06;5019250;28;20470;-80
2021/08/19 07:07:38;;;;;;;14.23;7.87;;;16.70;99.90;;;17.63;100.00;98096.19;5017672;28;20498;-80
2021/08/19 07:10:09;;;;;;;13.53;8.20;;;16.70;99.90;;;17.63;100.00;98085.59;5020187;28;20589;-80
2021/08/19 07:12:38;;;;;;;12.53;8.67;;;16.70;99.90;;;17.59;100.00;98093.19;5025350;28;20547;-80
2021/08/19 07:15:09;;;;;;;15.70;9.50;;;16.70;99.90;;;17.60;100.00;98092.94;5016528;28;20836;-80
2021/08/19 07:17:38;;;;;;;14.40;9.50;;;16.70;99.90;;;17.62;100.00;98095.38;5015998;28;20475;-80
2021/08/19 07:20:10;;;;;;;14.23;9.60;;;16.70;99.90;;;17.60;100.00;98098.22;5026398;28;20527;-80
2021/08/19 07:22:38;;;;;;;14.00;9.27;;;16.70;99.90;;;17.62;100.00;98094.56;5027881;28;21017;-80
2021/08/19 07:25:07;;;;;;;12.03;8.27;;;16.70;99.90;;;17.62;100.00;98102.50;5032432;28;20510;-80
2021/08/19 07:27:36;;;;;;;10.73;7.77;;;16.70;99.90;;;17.63;100.00;98096.19;5031302;28;20509;-80
2021/08/19 07:30:06;;;;;;;14.17;8.00;;;16.80;99.90;;;17.58;100.00;98095.03;5032758;28;20533;-80
2021/08/19 07:32:35;;;;;;;16.77;7.97;;;16.60;99.90;;;17.60;100.00;98097.41;5019552;28;20549;-80
2021/08/19 07:35:05;;;;;;;13.50;8.33;;;16.80;99.90;;;17.63;100.00;98101.47;5027319;28;20529;-80
2021/08/19 07:37:34;;;;;;;11.73;7.37;;;16.80;99.90;;;17.63;100.00;98102.28;5019553;28;20494;-80
2021/08/19 07:40:04;;;;;;;12.33;7.37;;;16.80;99.90;;;17.66;100.00;98103.66;5032023;28;20470;-80
2021/08/19 07:42:32;;;;;;;12.50;6.80;;;16.80;99.90;;;17.66;100.00;98106.28;5028706;28;20506;-79
2021/08/19 07:45:00;;;;;;;12.57;6.97;;;16.80;99.90;;;17.67;100.00;98107.91;5024294;28;20496;-80
2021/08/19 07:47:29;;;;;;;12.30;6.77;;;16.90;99.90;;;17.66;100.00;98101.00;5019701;28;20542;-80
2021/08/19 07:49:57;;;;;;;9.50;6.53;;;16.90;99.90;;;17.64;100.00;98100.41;5032259;28;20497;-80
2021/08/19 07:52:27;;;;;;;8.87;7.23;;;16.80;99.90;;;17.67;100.00;98099.97;5026857;28;20470;-80
2021/08/19 07:54:57;;;;;;;10.77;6.70;;;17.00;99.90;;;17.67;100.00;98102.63;5013106;28;20521;-80
2021/08/19 07:57:26;;;;;;;12.50;6.20;;;16.90;99.90;;;17.70;100.00;98107.44;5028607;28;20474;-80
2021/08/19 07:59:54;;;;;;;8.77;6.53;;;16.90;99.90;;;17.73;100.00;98112.28;5030791;28;21052;-79
2021/08/19 08:02:23;;;;;;;6.30;5.33;;;16.90;99.90;;;17.72;100.00;98110.66;5019687;28;20959;-80
2021/08/19 08:04:52;;;;;;;8.63;5.47;;;16.90;99.90;;;17.76;100.00;98119.75;5019872;28;20549;-80
2021/08/19 08:07:20;;;;;;;8.10;6.00;;;16.90;99.90;;;17.79;100.00;98111.34;5016947;28;20898;-80
2021/08/19 08:09:49;;;;;;;8.00;5.10;;;17.00;99.90;;;17.80;100.00;98112.97;5014971;28;20506;-80
2021/08/19 08:12:19;;;;;;;11.40;4.70;;;17.10;99.90;;;17.81;100.00;98112.72;5022099;28;20458;-80
2021/08/19 08:14:47;;;;;;;7.63;5.50;;;17.10;99.90;;;17.85;100.00;98111.22;5019507;28;20486;-80
2021/08/19 08:17:17;;;;;;;7.57;4.90;;;17.10;99.90;;;17.88;100.00;98112.59;5021974;28;20521;-80
2021/08/19 08:19:46;;;;;;;8.00;4.40;;;17.10;99.90;;;17.87;100.00;98118.94;5029936;28;20474;-79
2021/08/19 08:22:15;;;;;;;6.50;4.93;;;17.20;99.90;;;17.84;100.00;98114.09;5021137;28;20502;-80
2021/08/19 08:24:43;;;;;;;7.13;5.00;;;17.10;99.90;;;17.87;100.00;98119.75;5019407;28;20466;-80
2021/08/19 08:27:12;;;;;;;6.23;4.90;;;17.10;99.90;;;17.92;100.00;98113.75;5021487;28;20834;-79
2021/08/19 08:29:42;;;;;;;5.97;4.33;;;17.10;99.90;;;17.95;100.00;98119.38;5030516;28;20915;-79
2021/08/19 08:32:11;;;;;;;5.77;4.17;;;17.10;99.90;;;18.00;100.00;98119.50;5031817;28;20892;-80
2021/08/19 08:34:41;;;;;;;5.60;4.23;;;17.20;99.90;;;18.05;100.00;98118.78;5031573;28;20500;-80
2021/08/19 08:37:10;;;;;;;7.43;4.90;;;17.20;99.90;;;18.09;100.00;98115.44;5030059;28;20466;-80
2021/08/19 08:39:39;;;;;;;10.90;5.63;;;17.30;99.90;;;18.13;100.00;98115.78;5030593;28;20536;-80
2021/08/19 08:42:11;;;;;;;6.93;4.87;;;17.30;99.90;;;18.14;100.00;98120.03;5030835;28;20538;-79
2021/08/19 08:44:43;;;;;;;7.67;5.07;;;17.30;99.90;;;18.17;100.00;98118.75;5031633;28;20540;-80
2021/08/19 08:47:16;;;;;;;6.37;5.00;;;17.20;99.90;;;18.25;100.00;98115.75;5028322;28;20528;-81
2021/08/19 08:49:45;;;;;;;5.13;3.93;;;17.30;99.90;;;18.29;100.00;98117.69;5031298;28;20506;-80
2021/08/19 08:52:13;;;;;;;8.13;3.90;;;17.50;99.90;;;18.31;100.00;98112.16;5030604;28;20473;-80
2021/08/19 08:54:41;;;;;;;4.90;3.57;;;17.40;99.90;;;18.38;100.00;98116.31;5030879;28;20466;-80
2021/08/19 08:57:10;;;;;;;7.30;4.00;;;17.50;99.90;;;18.38;100.00;98111.00;5030820;28;20466;-80
2021/08/19 08:59:38;;;;;;;5.27;4.30;;;17.50;99.90;;;18.45;100.00;98118.81;5018780;28;20471;-80
2021/08/19 09:02:08;;;;;;;6.30;3.50;;;17.50;99.90;;;18.40;100.00;98116.84;5029857;28;20493;-81
2021/08/19 09:04:37;;;;;;;8.50;3.50;;;17.50;99.90;;;18.47;100.00;98124.66;5028454;28;20473;-81
2021/08/19 09:07:06;;;;;;;3.40;2.83;;;17.70;99.90;;;18.49;100.00;98107.53;5025369;28;20841;-80
2021/08/19 09:09:35;;;;;;;3.87;2.67;;;17.90;99.90;;;18.50;100.00;98103.84;5012738;28;20499;-80
2021/08/19 09:12:06;;;;;;;2.97;2.63;;;17.80;99.90;;;18.56;100.00;98110.88;5012705;28;21002;-80
2021/08/19 09:14:40;;;;;;;7.03;2.90;;;17.80;99.90;;;18.56;100.00;98105.56;5025985;28;20513;-80
2021/08/19 09:17:10;;;;;;;4.47;3.00;;;17.70;99.90;;;18.65;100.00;98118.41;5022763;28;20471;-80
2021/08/19 09:19:39;;;;;;;4.63;3.77;;;17.80;99.90;;;18.67;100.00;98119.00;5027965;28;20509;-80
2021/08/19 09:22:09;;;;;;;4.80;3.50;;;17.90;99.90;;;18.60;100.00;98130.53;5021328;28;20528;-80
2021/08/19 09:24:37;;;;;;;5.43;3.87;;;17.80;99.90;;;18.54;100.00;98123.53;5028902;28;20472;-80
2021/08/19 09:27:13;;;;;;;10.23;3.53;;;17.70;99.90;;;18.57;100.00;98111.63;5030537;28;20852;-80
2021/08/19 09:29:45;;;;;;;5.60;3.60;;;17.80;99.90;;;18.63;100.00;98117.84;5030009;28;21782;-80
2021/08/19 09:32:17;;;;;;;7.80;4.43;;;17.80;99.90;;;18.66;100.00;98122.69;5030475;28;20549;-80
2021/08/19 09:34:49;;;;;;;6.60;3.57;;;17.90;99.90;;;18.71;100.00;98125.44;5012808;28;20526;-80
2021/08/19 09:37:20;;;;;;;8.33;4.17;;;18.00;99.90;;;18.74;100.00;98127.63;5026560;28;20532;-80
2021/08/19 09:40:00;;;;;;;7.30;5.30;;;18.00;99.90;;;18.78;100.00;98126.09;5020300;28;20490;-80
2021/08/19 09:42:40;;;;;;;6.43;4.80;;;18.10;99.90;;;18.77;100.00;98122.66;5026001;28;20475;-80
2021/08/19 09:45:19;;;;;;;5.53;4.30;;;18.10;99.90;;;18.75;100.00;98122.06;5023110;28;20472;-80
2021/08/19 09:47:50;;;;;;;7.10;4.83;;;18.00;99.90;;;18.76;100.00;98123.69;5018333;28;20466;-80
2021/08/19 09:50:21;;;;;;;7.03;4.13;;;17.90;99.90;;;18.80;100.00;98118.72;5030983;28;20505;-80
2021/08/19 09:52:51;;;;;;;4.87;3.77;;;18.00;99.90;;;18.76;100.00;98121.03;5024649;28;20922;-80
2021/08/19 09:55:24;;;;;;;7.20;4.60;;;18.00;99.90;;;18.82;100.00;98116.59;5030270;28;20539;-80
2021/08/19 09:57:53;;;;;;;7.27;4.77;;;18.00;99.90;;;18.85;100.00;98118.78;5026439;28;20473;-80
2021/08/19 10:00:30;;;;;;;5.87;4.23;;;18.00;99.90;;;18.85;100.00;98111.63;5016651;28;20474;-80
2021/08/19 10:03:01;;;;;;;7.73;4.80;;;18.00;99.90;;;18.81;100.00;98115.81;5026395;28;20474;-80
2021/08/19 10:05:29;;;;;;;6.60;3.63;;;17.90;99.90;;;18.86;100.00;98120.41;5022287;28;20575;-80
2021/08/19 10:08:00;;;;;;;8.47;5.10;;;18.00;99.90;;;18.85;100.00;98116.13;5022970;28;20471;-80
2021/08/19 10:10:29;;;;;;;5.73;4.83;;;18.00;99.90;;;18.83;100.00;98123.53;5023079;28;20505;-80
2021/08/19 10:13:02;;;;;;;7.60;5.00;;;17.90;99.90;;;18.88;100.00;98118.34;5032791;28;20672;-80
2021/08/19 10:15:36;;;;;;;9.70;5.53;;;18.00;99.90;;;18.86;100.00;98117.75;5032417;28;20466;-80
2021/08/19 10:18:08;;;;;;;10.03;5.67;;;18.00;99.90;;;18.86;100.00;98123.03;5031326;28;20616;-80
2021/08/19 10:20:42;;;;;;;11.80;5.20;;;18.00;99.90;;;18.85;100.00;98122.25;5016831;28;21271;-80
2021/08/19 10:23:14;;;;;;;8.20;5.57;;;18.00;99.90;;;18.87;100.00;98124.66;5022551;28;20469;-80
2021/08/19 10:25:44;;;;;;;6.30;4.73;;;18.00;99.90;;;18.86;100.00;98117.75;5021856;28;20474;-80